Fourmile, Kentucky
Current Conditions -  °F | °C
As of 5:15 PM on Friday 24 Oct 2014 (Local Time) from K1A6 Reporting Station
Clear Clear  
Wind Chill: 67°   Ceiling: Unl
Heat Index: 67°   Visibility: 10mi
Dew Point: 42°   Wind: 6mph
Humidity: 42%   Direction: 10°N
Pressure: 30.04"   Gusts: NA
Location:  36.79°N, 83.74°W
Report Text: K1A6 242115Z AUTO 01005KT 10SM CLR 19/06 A3004 RMK AO2 T01920058
Loading
Personal Weather Stations






























Interactive Weather Map
Tropical Storm Tracking
New forecast layout! Learn more

10-Day Weather Forecast

Advertisements
Track Severe Weather on mobile